Time;durP1;ratioP1;P1;durP2;ratioP2;P2;SDS_P1;SDS_P2;PMS_P1;PMS_P2;Temp;Humidity;BMP_temperature;BMP_pressure;BME280_temperature;BME280_humidity;BME280_pressure;Samples;Min_cycle;Max_cycle;Signal;HPM_P1;HPM_P2
2021/10/02 00:34:11;;;;;;;8.97;5.87;;;14.20;99.90;;;;;;5069157;28;20040;-78
2021/10/02 00:45:02;;;;;;;7.82;5.20;;;14.20;99.90;;;;;;5093699;28;20040;-78
2021/10/02 00:47:34;;;;;;;8.05;5.30;;;14.20;99.90;;;;;;5093429;28;20585;-79
2021/10/02 00:50:01;;;;;;;8.35;5.40;;;14.20;99.90;;;;;;5093836;28;20123;-78
2021/10/02 00:52:31;;;;;;;9.13;5.55;;;14.20;99.90;;;;;;5093694;28;20079;-79
2021/10/02 00:54:58;;;;;;;7.78;5.03;;;14.20;99.90;;;;;;5093800;28;20127;-79
2021/10/02 00:57:25;;;;;;;11.10;5.50;;;14.20;99.90;;;;;;5093443;28;20135;-79
2021/10/02 00:59:53;;;;;;;9.13;5.70;;;14.20;99.90;;;;;;5093821;28;20130;-80
2021/10/02 01:02:26;;;;;;;8.32;5.82;;;14.20;99.90;;;;;;5093384;28;20083;-78
2021/10/02 01:05:15;;;;;;;8.35;5.20;;;14.10;99.90;;;;;;5093845;28;20119;-76
2021/10/02 01:07:54;;;;;;;9.52;5.63;;;14.10;99.90;;;;;;5088770;28;20123;-77
2021/10/02 01:10:33;;;;;;;8.55;5.53;;;14.00;99.90;;;;;;5093649;28;20136;-78
2021/10/02 01:13:12;;;;;;;9.35;5.82;;;14.00;99.90;;;;;;5093567;28;20048;-80
2021/10/02 01:15:48;;;;;;;9.18;5.78;;;14.00;99.90;;;;;;5086259;28;20122;-79
2021/10/02 01:18:18;;;;;;;9.20;5.65;;;13.90;99.90;;;;;;5092912;28;20127;-78
2021/10/02 01:21:03;;;;;;;9.70;5.95;;;13.80;99.90;;;;;;5093404;28;20465;-80
2021/10/02 01:24:01;;;;;;;9.93;5.60;;;13.90;99.90;;;;;;5093065;28;20063;-80
2021/10/02 01:27:01;;;;;;;8.45;5.70;;;13.70;99.90;;;;;;5092892;28;20055;-80
2021/10/02 01:29:32;;;;;;;9.63;5.75;;;13.70;99.90;;;;;;5059215;28;20071;-79
2021/10/02 01:32:07;;;;;;;8.90;5.63;;;13.70;99.90;;;;;;5092600;28;20493;-79
2021/10/02 01:34:39;;;;;;;;;;;13.60;99.90;;;;;;5092238;28;20401;-79
2021/10/02 01:37:21;;;;;;;9.35;5.18;;;13.60;99.90;;;;;;5092839;28;19947;-79
2021/10/02 01:48:39;;;;;;;7.72;5.25;;;13.70;99.90;;;;;;5084037;28;20051;-79
2021/10/02 01:51:09;;;;;;;8.77;5.20;;;13.70;99.90;;;;;;5092758;28;20594;-79
2021/10/02 01:53:39;;;;;;;9.18;5.53;;;13.70;99.90;;;;;;5085044;28;20055;-76
2021/10/02 01:56:10;;;;;;;9.90;5.50;;;13.70;99.90;;;;;;5092879;28;20135;-80
2021/10/02 01:58:39;;;;;;;8.25;5.40;;;13.70;99.90;;;;;;5085387;28;20079;-77
2021/10/02 02:01:08;;;;;;;8.95;5.22;;;13.60;99.90;;;;;;5093267;28;20082;-79
2021/10/02 02:03:40;;;;;;;7.85;5.22;;;13.70;99.90;;;;;;5093105;28;20119;-79
2021/10/02 02:06:08;;;;;;;9.40;5.90;;;13.60;99.90;;;;;;5093124;28;20122;-77
2021/10/02 02:08:37;;;;;;;8.82;5.53;;;13.70;99.90;;;;;;5085225;28;20573;-78
2021/10/02 02:11:05;;;;;;;9.40;5.53;;;13.60;99.90;;;;;;5093081;28;20130;-80
2021/10/02 02:13:36;;;;;;;8.55;5.25;;;13.60;99.90;;;;;;5092627;28;20127;-79
2021/10/02 02:16:04;;;;;;;7.78;4.82;;;13.50;99.90;;;;;;5092642;28;20119;-79
2021/10/02 02:18:34;;;;;;;7.93;5.15;;;13.50;99.90;;;;;;5092233;28;20040;-80
2021/10/02 02:21:05;;;;;;;8.63;5.00;;;13.50;99.90;;;;;;5092598;28;20044;-79
2021/10/02 02:23:32;;;;;;;8.98;5.00;;;13.40;99.90;;;;;;5092099;28;20123;-79
2021/10/02 02:26:03;;;;;;;8.27;5.00;;;13.40;99.90;;;;;;5092425;28;20044;-77
2021/10/02 02:28:32;;;;;;;8.63;5.10;;;13.50;99.90;;;;;;5092715;28;20052;-79
2021/10/02 02:31:00;;;;;;;7.65;5.20;;;13.50;99.90;;;;;;5092533;28;20044;-77
2021/10/02 02:33:27;;;;;;;8.02;4.85;;;13.50;99.90;;;;;;5092167;28;20051;-79
2021/10/02 02:35:56;;;;;;;6.95;5.05;;;13.50;99.90;;;;;;5092878;28;20122;-77
2021/10/02 02:38:23;;;;;;;9.98;5.28;;;13.50;99.90;;;;;;5092412;28;20131;-79
2021/10/02 02:40:50;;;;;;;7.93;5.03;;;13.50;99.90;;;;;;5092410;28;20052;-76
2021/10/02 02:43:18;;;;;;;7.63;4.65;;;13.50;99.90;;;;;;5096080;28;20052;-76
2021/10/02 02:45:56;;;;;;;7.60;4.80;;;13.50;99.90;;;;;;5096278;28;20051;-76
2021/10/02 02:48:30;;;;;;;7.63;5.03;;;13.50;99.90;;;;;;5095834;28;20135;-80
2021/10/02 02:51:03;;;;;;;7.35;4.43;;;13.50;99.90;;;;;;5096125;28;20478;-79
2021/10/02 02:53:45;;;;;;;8.40;5.03;;;13.50;99.90;;;;;;5095803;28;20051;-79
2021/10/02 02:56:18;;;;;;;8.98;5.30;;;13.60;99.90;;;;;;5095793;28;20040;-77
2021/10/02 02:58:51;;;;;;;8.07;5.47;;;13.50;99.90;;;;;;5096067;28;20046;-77
2021/10/02 03:01:20;;;;;;;9.20;5.30;;;13.50;99.90;;;;;;5095724;28;20055;-79
2021/10/02 03:03:51;;;;;;;9.27;5.18;;;13.50;99.90;;;;;;5092941;28;20413;-79
2021/10/02 03:06:22;;;;;;;8.60;5.35;;;13.50;99.90;;;;;;5093187;28;20052;-77
2021/10/02 03:08:53;;;;;;;10.98;5.38;;;13.50;99.90;;;;;;5091682;28;20397;-78
2021/10/02 03:11:22;;;;;;;8.43;5.18;;;13.40;99.90;;;;;;5091826;28;20485;-79
2021/10/02 03:13:52;;;;;;;9.32;5.25;;;13.30;99.90;;;;;;5092006;28;20516;-79
2021/10/02 03:16:20;;;;;;;9.50;5.50;;;13.20;99.90;;;;;;5092080;28;20066;-79
2021/10/02 03:18:54;;;;;;;10.48;5.45;;;13.20;99.90;;;;;;5092020;28;20237;-77
2021/10/02 03:21:24;;;;;;;9.00;5.00;;;13.10;99.90;;;;;;5091677;28;20058;-79
2021/10/02 03:23:52;;;;;;;7.75;5.07;;;13.10;99.90;;;;;;5092240;28;20300;-79
2021/10/02 03:26:20;;;;;;;9.07;5.10;;;13.00;99.90;;;;;;5091705;28;20105;-79
2021/10/02 03:28:49;;;;;;;7.95;4.82;;;13.00;99.90;;;;;;5091990;28;20046;-78
2021/10/02 03:31:18;;;;;;;8.40;4.85;;;13.00;99.90;;;;;;5091548;28;20056;-79
2021/10/02 03:33:46;;;;;;;9.52;4.85;;;13.00;99.90;;;;;;5090975;28;20044;-78
2021/10/02 03:36:14;;;;;;;7.25;4.68;;;13.00;99.90;;;;;;5092684;28;20047;-78
2021/10/02 03:38:44;;;;;;;7.65;4.93;;;13.10;99.90;;;;;;5092771;28;20482;-78
2021/10/02 03:41:11;;;;;;;8.65;5.00;;;13.10;99.90;;;;;;5092542;28;20043;-77
2021/10/02 03:43:39;;;;;;;7.55;4.80;;;13.10;99.90;;;;;;5093028;28;20131;-78
2021/10/02 03:46:06;;;;;;;8.00;4.78;;;13.10;99.90;;;;;;5092563;28;20134;-79
2021/10/02 03:48:34;;;;;;;8.52;5.18;;;13.00;99.90;;;;;;5092541;28;20051;-78
2021/10/02 03:51:02;;;;;;;8.45;5.50;;;13.00;99.90;;;;;;5092522;28;20547;-78
2021/10/02 03:53:30;;;;;;;8.35;5.15;;;12.90;99.90;;;;;;5091510;28;20056;-78
2021/10/02 03:56:00;;;;;;;9.63;5.65;;;13.00;99.90;;;;;;5092364;28;20044;-77
2021/10/02 03:58:28;;;;;;;8.40;5.22;;;13.00;99.90;;;;;;5092084;28;20084;-77
2021/10/02 04:00:55;;;;;;;9.18;5.22;;;13.00;99.90;;;;;;5092736;28;20446;-76
2021/10/02 04:03:22;;;;;;;10.10;5.10;;;12.90;99.90;;;;;;5094802;28;20138;-79
2021/10/02 04:05:49;;;;;;;8.30;5.30;;;13.00;99.90;;;;;;5094716;28;20044;-78
2021/10/02 04:08:16;;;;;;;7.47;5.03;;;13.00;99.90;;;;;;5094507;28;20044;-78
2021/10/02 04:10:43;;;;;;;9.30;5.57;;;13.10;99.90;;;;;;5094651;28;20131;-79
2021/10/02 04:13:12;;;;;;;8.43;5.50;;;13.00;99.90;;;;;;5094777;28;20036;-76
2021/10/02 04:15:39;;;;;;;7.75;5.13;;;13.00;99.90;;;;;;5094641;28;20058;-79
2021/10/02 04:18:06;;;;;;;8.85;5.55;;;12.90;99.90;;;;;;5094501;28;20046;-78
2021/10/02 04:20:33;;;;;;;8.07;5.18;;;12.90;99.90;;;;;;5094154;28;20132;-79
2021/10/02 04:23:00;;;;;;;8.05;4.97;;;12.90;99.90;;;;;;5094189;28;20046;-78
2021/10/02 04:25:27;;;;;;;8.35;5.30;;;12.80;99.90;;;;;;5094215;28;20076;-77
2021/10/02 04:27:55;;;;;;;8.30;5.43;;;12.90;99.90;;;;;;5094175;28;20131;-78
2021/10/02 04:30:23;;;;;;;12.05;5.88;;;12.90;99.90;;;;;;5093988;28;20048;-79
2021/10/02 04:32:50;;;;;;;7.75;5.18;;;12.90;99.90;;;;;;5094018;28;20470;-77
2021/10/02 04:35:17;;;;;;;9.80;5.63;;;12.90;99.90;;;;;;5092551;28;20042;-78
2021/10/02 04:37:45;;;;;;;9.00;5.68;;;12.90;99.90;;;;;;5094157;28;20044;-79
2021/10/02 04:40:13;;;;;;;8.88;5.72;;;12.90;99.90;;;;;;5093895;28;20410;-78
2021/10/02 04:42:40;;;;;;;7.82;4.95;;;13.00;99.90;;;;;;5094076;28;20040;-79
2021/10/02 04:45:08;;;;;;;7.63;4.88;;;13.00;99.90;;;;;;5093872;28;20409;-78
2021/10/02 04:47:37;;;;;;;7.80;5.40;;;12.90;99.90;;;;;;5085757;28;20048;-79
2021/10/02 04:50:06;;;;;;;8.55;5.25;;;13.00;99.90;;;;;;5093853;28;20051;-80
2021/10/02 04:52:33;;;;;;;8.77;5.53;;;13.00;99.90;;;;;;5093354;28;20131;-79
2021/10/02 04:55:00;;;;;;;8.63;5.18;;;13.00;99.90;;;;;;5093640;28;20375;-77
2021/10/02 04:57:27;;;;;;;9.05;5.63;;;12.90;99.90;;;;;;5093852;28;21415;-80
2021/10/02 04:59:54;;;;;;;8.40;5.38;;;12.80;99.90;;;;;;5093986;28;20131;-81
2021/10/02 05:02:21;;;;;;;8.43;5.63;;;12.80;99.90;;;;;;5093375;28;20075;-81
2021/10/02 05:04:49;;;;;;;9.25;5.30;;;12.60;99.90;;;;;;5092869;28;20483;-80
2021/10/02 05:07:16;;;;;;;7.32;5.00;;;12.60;99.90;;;;;;5090905;28;20516;-80
2021/10/02 05:09:44;;;;;;;7.82;5.03;;;12.50;99.90;;;;;;5092487;28;20075;-80
2021/10/02 05:12:12;;;;;;;8.27;4.97;;;12.50;99.90;;;;;;5092762;28;20139;-77
2021/10/02 05:14:40;;;;;;;8.48;4.82;;;12.50;99.90;;;;;;5076843;28;20045;-79
2021/10/02 05:17:10;;;;;;;8.80;5.15;;;12.60;99.90;;;;;;5076132;28;20040;-77
2021/10/02 05:19:38;;;;;;;8.75;5.20;;;12.60;99.90;;;;;;5085545;28;20047;-79
2021/10/02 05:22:07;;;;;;;8.05;4.95;;;12.60;99.90;;;;;;5089155;28;20477;-80
2021/10/02 05:24:36;;;;;;;8.95;4.80;;;12.70;99.90;;;;;;5092937;28;20555;-80
2021/10/02 05:27:08;;;;;;;8.48;5.20;;;12.70;99.90;;;;;;5092915;28;20122;-80
2021/10/02 05:29:35;;;;;;;9.07;5.32;;;12.70;99.90;;;;;;5089294;28;20515;-79
2021/10/02 05:32:05;;;;;;;8.18;4.68;;;12.80;99.90;;;;;;5089423;28;20043;-79
2021/10/02 05:34:32;;;;;;;7.68;5.15;;;12.70;99.90;;;;;;5090782;28;20553;-80
2021/10/02 05:36:59;;;;;;;8.55;4.55;;;12.80;99.90;;;;;;5095481;28;20123;-77
2021/10/02 05:39:29;;;;;;;7.35;4.50;;;12.70;99.90;;;;;;5092040;28;20413;-76
2021/10/02 05:41:57;;;;;;;8.18;4.93;;;12.80;99.90;;;;;;5101347;28;20044;-78
2021/10/02 05:44:24;;;;;;;8.35;4.70;;;12.80;99.90;;;;;;5092745;28;20072;-79
2021/10/02 05:49:27;;;;;;;8.60;4.85;;;12.80;99.90;;;;;;5533390;22;20057;-78
2021/10/02 05:51:55;;;;;;;7.40;4.90;;;12.80;99.90;;;;;;5037593;28;20116;-76
2021/10/02 05:54:23;;;;;;;8.88;5.50;;;12.80;99.90;;;;;;5040241;28;20073;-75
2021/10/02 05:56:51;;;;;;;6.90;4.35;;;12.90;99.90;;;;;;5044221;28;20131;-79
2021/10/02 05:59:19;;;;;;;7.43;4.57;;;12.90;99.90;;;;;;5046801;28;20140;-76
2021/10/02 06:01:46;;;;;;;7.75;5.03;;;12.90;99.90;;;;;;5038100;28;20037;-79
2021/10/02 06:04:13;;;;;;;8.75;5.22;;;12.90;99.90;;;;;;5036190;28;20053;-78
2021/10/02 06:06:40;;;;;;;8.05;4.82;;;13.00;99.90;;;;;;5033583;28;20128;-78
2021/10/02 06:09:07;;;;;;;8.05;5.20;;;13.00;99.90;;;;;;5040800;28;20120;-78
2021/10/02 06:11:34;;;;;;;11.35;5.38;;;13.00;99.90;;;;;;5040580;28;20125;-79
2021/10/02 06:14:03;;;;;;;8.13;5.30;;;13.10;99.90;;;;;;5039512;28;20128;-80
2021/10/02 06:16:30;;;;;;;8.52;5.45;;;13.20;99.90;;;;;;5033510;28;20059;-78
2021/10/02 06:18:57;;;;;;;7.53;4.95;;;13.20;99.90;;;;;;5040853;28;20121;-79
2021/10/02 06:21:24;;;;;;;9.48;5.10;;;13.20;99.90;;;;;;5044399;28;20128;-80
2021/10/02 06:23:52;;;;;;;8.43;5.40;;;13.20;99.90;;;;;;5041331;28;20136;-78
2021/10/02 06:26:19;;;;;;;7.80;4.72;;;13.20;99.90;;;;;;5039100;28;20100;-79
2021/10/02 06:28:46;;;;;;;8.30;4.90;;;13.20;99.90;;;;;;5040906;28;20135;-79
2021/10/02 06:31:14;;;;;;;7.93;5.07;;;13.20;99.90;;;;;;5037112;28;20132;-81
2021/10/02 06:33:41;;;;;;;8.35;5.07;;;13.10;99.90;;;;;;5050402;28;20077;-80
2021/10/02 06:36:08;;;;;;;8.07;4.90;;;13.10;99.90;;;;;;5038123;28;20570;-80
2021/10/02 06:38:35;;;;;;;7.10;4.80;;;13.10;99.90;;;;;;5042401;28;20128;-79
2021/10/02 06:41:02;;;;;;;10.88;5.78;;;13.10;99.90;;;;;;5044942;28;20132;-77
2021/10/02 06:43:29;;;;;;;9.27;5.32;;;13.10;99.90;;;;;;5038271;28;20045;-79
2021/10/02 06:45:56;;;;;;;9.40;5.00;;;13.10;99.90;;;;;;5044877;28;20136;-78
2021/10/02 06:48:25;;;;;;;7.43;4.63;;;13.10;99.90;;;;;;5041957;28;20128;-81
2021/10/02 06:50:52;;;;;;;7.50;4.93;;;13.10;99.90;;;;;;5043659;28;20132;-79
2021/10/02 06:53:19;;;;;;;9.20;5.13;;;13.10;99.90;;;;;;5045156;28;20073;-80
2021/10/02 06:55:47;;;;;;;10.55;5.10;;;13.10;99.90;;;;;;5037798;28;20128;-79
2021/10/02 06:58:14;;;;;;;8.25;4.82;;;13.10;99.90;;;;;;5030011;28;20132;-80
2021/10/02 07:00:41;;;;;;;8.27;5.07;;;13.10;99.90;;;;;;5033918;28;20561;-80
2021/10/02 07:03:08;;;;;;;6.80;4.75;;;13.20;99.90;;;;;;5040932;28;20128;-81
2021/10/02 07:05:36;;;;;;;7.60;4.68;;;13.30;99.90;;;;;;5038454;28;20135;-76
2021/10/02 07:08:04;;;;;;;7.50;4.95;;;13.30;99.90;;;;;;5037554;28;20132;-78
2021/10/02 07:10:31;;;;;;;8.60;5.00;;;13.40;99.90;;;;;;5039069;28;20129;-78
2021/10/02 07:12:59;;;;;;;7.63;4.95;;;13.40;99.90;;;;;;5043721;28;20609;-78
2021/10/02 07:15:27;;;;;;;8.00;4.95;;;13.50;99.90;;;;;;5045781;28;20041;-80
2021/10/02 07:17:54;;;;;;;8.52;5.32;;;13.50;99.90;;;;;;5047037;28;20124;-79
2021/10/02 07:20:22;;;;;;;8.98;5.35;;;13.60;99.90;;;;;;5043187;28;20125;-80
2021/10/02 07:22:50;;;;;;;8.88;5.45;;;13.60;99.90;;;;;;5041510;28;20136;-78
2021/10/02 07:25:18;;;;;;;8.80;5.45;;;13.60;99.90;;;;;;5046970;28;20132;-78
2021/10/02 07:27:45;;;;;;;8.95;5.32;;;13.60;99.90;;;;;;5046733;28;20124;-76
2021/10/02 07:30:14;;;;;;;9.10;5.90;;;13.70;99.90;;;;;;5043298;28;20099;-79
2021/10/02 07:32:42;;;;;;;8.98;5.57;;;13.70;99.90;;;;;;5038153;28;20144;-79
2021/10/02 07:35:11;;;;;;;8.50;5.70;;;13.70;99.90;;;;;;5039811;28;20494;-78
2021/10/02 07:37:39;;;;;;;7.90;5.13;;;13.80;99.90;;;;;;5047064;28;20549;-79
2021/10/02 07:40:12;;;;;;;7.97;5.22;;;13.80;99.90;;;;;;5044427;28;20132;-77
2021/10/02 07:42:40;;;;;;;7.60;4.90;;;13.80;99.90;;;;;;5049034;28;20560;-76
2021/10/02 07:45:10;;;;;;;8.10;5.10;;;13.80;99.90;;;;;;5046913;28;20124;-78
2021/10/02 07:47:42;;;;;;;7.60;4.72;;;13.80;99.90;;;;;;5047875;28;20125;-79
2021/10/02 07:50:11;;;;;;;9.15;5.70;;;13.90;99.90;;;;;;5041464;28;20140;-79
2021/10/02 07:52:39;;;;;;;9.63;5.72;;;13.90;99.90;;;;;;5035677;28;20129;-77
2021/10/02 07:55:10;;;;;;;11.23;5.82;;;13.90;99.90;;;;;;5046187;28;20162;-78
2021/10/02 07:57:40;;;;;;;8.93;5.07;;;13.90;99.90;;;;;;5035233;28;20053;-80
2021/10/02 08:00:10;;;;;;;10.15;5.18;;;13.90;99.90;;;;;;5043791;28;20691;-78
2021/10/02 08:02:37;;;;;;;7.95;4.95;;;14.00;99.90;;;;;;5034930;28;20133;-77
2021/10/02 08:05:05;;;;;;;8.70;5.18;;;14.00;99.90;;;;;;5048245;28;20132;-79
2021/10/02 08:07:32;;;;;;;10.18;4.93;;;14.00;99.90;;;;;;5042988;28;20099;-79
2021/10/02 08:09:59;;;;;;;9.50;6.43;;;14.10;99.90;;;;;;5042631;28;20128;-80
2021/10/02 08:12:28;;;;;;;12.68;7.35;;;14.20;99.90;;;;;;5045869;28;20152;-76
2021/10/02 08:14:55;;;;;;;10.88;6.95;;;14.20;99.90;;;;;;5042998;28;20398;-80
2021/10/02 08:17:25;;;;;;;11.52;6.45;;;14.20;99.90;;;;;;5044323;28;20140;-79
2021/10/02 08:19:58;;;;;;;11.00;6.25;;;14.30;99.90;;;;;;5036324;28;20490;-78
2021/10/02 08:22:25;;;;;;;10.85;6.20;;;14.30;99.90;;;;;;5048834;28;20048;-78
2021/10/02 08:24:53;;;;;;;8.43;5.55;;;14.40;99.90;;;;;;5042521;28;20128;-79
2021/10/02 08:27:21;;;;;;;9.02;5.80;;;14.50;99.90;;;;;;5043459;28;20125;-76
2021/10/02 08:29:50;;;;;;;8.00;5.20;;;14.50;99.90;;;;;;5045930;28;20135;-76
2021/10/02 08:32:17;;;;;;;9.70;5.53;;;14.60;99.90;;;;;;5044031;28;20578;-79
2021/10/02 08:34:44;;;;;;;7.78;4.70;;;14.70;99.90;;;;;;5043538;28;20128;-80
2021/10/02 08:37:12;;;;;;;6.80;4.70;;;14.70;99.90;;;;;;5039028;28;20041;-78
2021/10/02 08:39:39;;;;;;;7.68;4.78;;;14.80;99.90;;;;;;5045369;28;20087;-78
2021/10/02 08:42:06;;;;;;;7.93;5.00;;;14.80;99.90;;;;;;5046242;28;20128;-77
2021/10/02 08:44:34;;;;;;;6.50;4.50;;;14.90;99.90;;;;;;5045328;28;20159;-79
2021/10/02 08:47:03;;;;;;;8.27;4.28;;;15.00;99.90;;;;;;5046383;28;20048;-84
2021/10/02 08:49:44;;;;;;;7.20;4.20;;;15.10;99.90;;;;;;5051565;28;20124;-84
2021/10/02 08:52:13;;;;;;;6.25;3.83;;;15.20;99.90;;;;;;5035757;28;20527;-82
2021/10/02 08:54:42;;;;;;;6.65;3.72;;;15.30;99.90;;;;;;5034695;28;20140;-81
2021/10/02 08:57:11;;;;;;;7.30;4.15;;;15.50;99.90;;;;;;5053322;28;20045;-82
2021/10/02 08:59:40;;;;;;;5.95;3.65;;;15.50;99.90;;;;;;5053982;28;20128;-82
2021/10/02 09:02:10;;;;;;;5.60;3.33;;;15.70;99.90;;;;;;5039599;28;20041;-83
2021/10/02 09:04:40;;;;;;;5.30;3.58;;;15.80;99.90;;;;;;5039412;28;20554;-79
2021/10/02 09:07:08;;;;;;;6.03;3.47;;;15.90;99.90;;;;;;5046413;28;20045;-78
2021/10/02 09:09:36;;;;;;;6.72;3.60;;;16.00;99.90;;;;;;5047352;28;20551;-79
2021/10/02 09:12:06;;;;;;;6.07;3.50;;;16.20;99.90;;;;;;5044388;28;20573;-79
2021/10/02 09:14:33;;;;;;;6.28;3.88;;;16.20;99.90;;;;;;5045128;28;20041;-79
2021/10/02 09:17:00;;;;;;;5.95;3.45;;;16.30;99.90;;;;;;5037628;28;20132;-80
2021/10/02 09:19:29;;;;;;;5.57;3.63;;;16.40;99.90;;;;;;5039930;28;20498;-79
2021/10/02 09:22:01;;;;;;;6.65;3.30;;;16.50;99.90;;;;;;5033283;28;20139;-77
2021/10/02 09:24:32;;;;;;;6.25;3.58;;;16.50;99.90;;;;;;5036248;28;20053;-79
2021/10/02 09:27:00;;;;;;;5.68;3.47;;;16.60;99.90;;;;;;5033791;28;20049;-78
2021/10/02 09:29:40;;;;;;;6.05;3.42;;;16.70;99.90;;;;;;5033466;28;20128;-77
2021/10/02 09:32:10;;;;;;;5.18;3.20;;;16.70;99.90;;;;;;5033639;28;20137;-78
2021/10/02 09:34:49;;;;;;;5.55;3.55;;;16.80;99.90;;;;;;5033963;28;20128;-79
2021/10/02 09:37:23;;;;;;;4.47;2.90;;;16.90;99.70;;;;;;5033405;28;20534;-78
2021/10/02 09:39:52;;;;;;;5.60;2.40;;;17.00;99.60;;;;;;5033539;28;20057;-77
2021/10/02 09:42:25;;;;;;;4.95;2.50;;;17.10;99.40;;;;;;5033318;28;20500;-78
2021/10/02 09:44:53;;;;;;;4.75;2.90;;;17.20;99.10;;;;;;5033215;28;20053;-78
2021/10/02 09:47:20;;;;;;;4.22;2.80;;;17.30;98.70;;;;;;5033347;28;20099;-79
2021/10/02 09:49:49;;;;;;;5.88;2.90;;;17.40;98.50;;;;;;5033204;28;20153;-79
2021/10/02 09:52:33;;;;;;;4.68;2.90;;;17.60;98.30;;;;;;5032582;28;20100;-80
2021/10/02 09:55:01;;;;;;;;;;;17.60;98.00;;;;;;5033402;28;20128;-79
2021/10/02 09:57:29;;;;;;;4.75;3.00;;;17.80;97.60;;;;;;5033182;28;20012;-77
2021/10/02 10:00:10;;;;;;;6.95;3.33;;;17.90;96.80;;;;;;5032937;28;20081;-79
2021/10/02 10:02:40;;;;;;;6.13;3.42;;;18.00;96.30;;;;;;5032842;28;20473;-79
2021/10/02 10:05:11;;;;;;;4.25;2.72;;;18.00;95.90;;;;;;5032954;28;20045;-78
2021/10/02 10:07:39;;;;;;;4.53;3.00;;;18.20;96.00;;;;;;5032989;28;20099;-79
2021/10/02 10:10:10;;;;;;;4.47;2.60;;;18.20;95.60;;;;;;5033121;28;20469;-78
2021/10/02 10:12:39;;;;;;;6.85;3.42;;;18.30;95.30;;;;;;5032846;28;20104;-78
2021/10/02 10:15:25;;;;;;;6.50;3.42;;;18.40;95.00;;;;;;5032985;28;20124;-79
2021/10/02 10:17:52;;;;;;;4.80;3.20;;;18.50;94.40;;;;;;5033082;28;20085;-79
2021/10/02 10:20:30;;;;;;;5.88;3.10;;;18.50;94.10;;;;;;5032869;28;20097;-79
2021/10/02 10:22:59;;;;;;;5.00;2.70;;;18.60;94.40;;;;;;5032819;28;20447;-79
2021/10/02 10:25:26;;;;;;;6.38;2.63;;;18.70;94.20;;;;;;5032771;28;20137;-79
2021/10/02 10:27:53;;;;;;;4.65;2.63;;;18.70;94.00;;;;;;5032618;28;20132;-79
2021/10/02 10:30:23;;;;;;;6.07;2.90;;;18.80;94.00;;;;;;5032641;28;20128;-76
2021/10/02 10:33:06;;;;;;;4.93;2.80;;;18.90;93.90;;;;;;5032587;28;20137;-78
2021/10/02 10:35:38;;;;;;;5.55;3.03;;;19.00;93.80;;;;;;5032757;28;20546;-79
2021/10/02 10:38:08;;;;;;;4.90;3.00;;;19.10;93.60;;;;;;5032832;28;20049;-78
2021/10/02 10:40:36;;;;;;;5.03;2.88;;;19.20;93.50;;;;;;5032646;28;20148;-76
2021/10/02 10:43:04;;;;;;;4.85;2.80;;;19.20;93.00;;;;;;5032663;28;20136;-77
2021/10/02 10:45:34;;;;;;;4.20;2.47;;;19.30;93.00;;;;;;5032775;28;20132;-78
2021/10/02 10:48:02;;;;;;;5.78;3.08;;;19.30;92.90;;;;;;5032864;28;20045;-78
2021/10/02 10:50:29;;;;;;;4.40;2.67;;;19.40;92.90;;;;;;5032482;28;20148;-79
2021/10/02 10:53:02;;;;;;;9.93;5.35;;;19.50;92.90;;;;;;5032458;28;20144;-79
2021/10/02 10:55:30;;;;;;;10.75;6.00;;;19.60;92.70;;;;;;5032689;28;20124;-76
2021/10/02 10:57:58;;;;;;;8.32;4.95;;;19.70;92.50;;;;;;5032405;28;20042;-79
2021/10/02 11:00:42;;;;;;;5.82;3.30;;;19.70;91.80;;;;;;5032467;28;20128;-78
2021/10/02 11:03:11;;;;;;;5.20;2.75;;;19.70;91.60;;;;;;5034237;28;20057;-79
2021/10/02 11:05:51;;;;;;;5.03;2.70;;;19.80;91.60;;;;;;5035937;28;20558;-79
2021/10/02 11:08:24;;;;;;;4.10;2.28;;;19.80;91.50;;;;;;5041652;28;20133;-78
2021/10/02 11:10:56;;;;;;;5.03;2.70;;;19.90;91.20;;;;;;5036345;28;20403;-78
2021/10/02 11:13:56;;;;;;;4.68;2.30;;;20.00;91.00;;;;;;5036106;28;20497;-80
2021/10/02 11:16:48;;;;;;;6.28;2.80;;;20.00;90.80;;;;;;5036251;28;20099;-80
2021/10/02 11:19:33;;;;;;;3.78;2.22;;;20.10;90.60;;;;;;5021560;28;20133;-79
2021/10/02 11:23:08;;;;;;;4.70;2.67;;;20.10;90.40;;;;;;5035925;28;20128;-78
2021/10/02 11:25:37;;;;;;;5.25;2.95;;;20.20;90.40;;;;;;4999205;28;20111;-79
2021/10/02 11:28:33;;;;;;;4.05;2.30;;;20.40;90.10;;;;;;5035697;28;20136;-79
2021/10/02 11:31:01;;;;;;;5.25;2.80;;;20.50;90.00;;;;;;5001357;28;20052;-79
2021/10/02 11:33:33;;;;;;;5.38;2.95;;;20.50;89.10;;;;;;5035743;28;20132;-79
2021/10/02 11:36:01;;;;;;;6.40;2.92;;;20.60;89.10;;;;;;5035827;28;20046;-78
2021/10/02 11:38:39;;;;;;;4.50;2.60;;;20.70;88.60;;;;;;5035687;28;20087;-78
2021/10/02 11:41:25;;;;;;;4.45;2.70;;;20.80;88.30;;;;;;5035590;28;20117;-78
2021/10/02 11:43:55;;;;;;;5.18;3.13;;;20.90;88.20;;;;;;5035680;28;20128;-79
2021/10/02 11:46:25;;;;;;;5.40;2.88;;;21.00;88.20;;;;;;5035605;28;20426;-79
2021/10/02 11:48:53;;;;;;;4.15;2.58;;;21.10;87.20;;;;;;5035418;28;20043;-79
2021/10/02 11:51:28;;;;;;;4.43;2.70;;;21.30;86.90;;;;;;5035331;28;20145;-79
2021/10/02 11:53:59;;;;;;;4.80;2.55;;;21.40;86.30;;;;;;5035401;28;20088;-79
2021/10/02 11:56:30;;;;;;;6.18;2.78;;;21.50;85.20;;;;;;5035593;28;20144;-78
2021/10/02 11:59:00;;;;;;;4.70;2.45;;;21.50;84.50;;;;;;5035560;28;20111;-78
2021/10/02 12:01:29;;;;;;;4.47;2.55;;;21.60;83.30;;;;;;5035304;28;20046;-78
2021/10/02 12:04:03;;;;;;;4.63;2.40;;;21.70;83.40;;;;;;5035156;28;20049;-77
2021/10/02 12:06:32;;;;;;;5.28;2.97;;;21.80;83.50;;;;;;5035306;28;20128;-78
2021/10/02 12:09:00;;;;;;;5.75;2.75;;;22.00;82.20;;;;;;5034897;28;20265;-80
2021/10/02 12:11:29;;;;;;;5.32;2.90;;;22.00;80.80;;;;;;5035080;28;20046;-77
2021/10/02 12:13:58;;;;;;;4.57;2.92;;;22.10;80.40;;;;;;5034288;28;20497;-79
2021/10/02 12:16:28;;;;;;;5.00;2.97;;;22.20;80.40;;;;;;5034780;28;20652;-79
2021/10/02 12:19:00;;;;;;;4.80;2.80;;;22.30;79.50;;;;;;5034676;28;20561;-77
2021/10/02 12:21:38;;;;;;;4.13;2.47;;;22.40;78.40;;;;;;5035006;28;20080;-78
2021/10/02 12:24:11;;;;;;;4.65;2.80;;;22.50;76.70;;;;;;5034703;28;20136;-79
2021/10/02 12:26:45;;;;;;;4.50;2.47;;;22.60;75.10;;;;;;5034700;28;20132;-78
2021/10/02 12:29:15;;;;;;;4.10;2.28;;;22.70;74.50;;;;;;5034869;28;20133;-77
2021/10/02 12:32:02;;;;;;;4.85;2.63;;;22.80;74.30;;;;;;5034494;28;20140;-77
2021/10/02 12:34:34;;;;;;;4.47;2.60;;;22.90;74.10;;;;;;5034509;28;20138;-77
2021/10/02 12:37:04;;;;;;;4.13;2.40;;;23.00;73.40;;;;;;5034479;28;20132;-79
2021/10/02 12:39:46;;;;;;;3.83;2.22;;;23.20;74.00;;;;;;5046206;28;20148;-78
2021/10/02 12:42:17;;;;;;;4.07;2.40;;;23.40;72.30;;;;;;5035189;28;20045;-78
2021/10/02 12:44:52;;;;;;;4.00;2.40;;;23.70;71.90;;;;;;5042811;28;20139;-80
2021/10/02 12:47:22;;;;;;;;;;;23.80;71.20;;;;;;5043173;28;20124;-77
2021/10/02 12:49:50;;;;;;;4.78;2.80;;;23.90;69.90;;;;;;5042357;28;19944;-79
2021/10/02 12:52:19;;;;;;;5.75;3.50;;;24.00;69.10;;;;;;5048531;28;20128;-77
2021/10/02 12:54:50;;;;;;;5.57;3.13;;;24.00;67.90;;;;;;5044438;28;20120;-79
2021/10/02 12:57:29;;;;;;;4.43;2.75;;;24.20;67.30;;;;;;5043869;28;20466;-78
2021/10/02 13:00:02;;;;;;;4.78;2.50;;;24.30;67.30;;;;;;5044389;28;20124;-79
2021/10/02 13:02:30;;;;;;;3.95;2.20;;;24.40;65.70;;;;;;5040867;28;20103;-79
2021/10/02 13:04:58;;;;;;;3.85;2.25;;;24.40;63.60;;;;;;5037945;28;20097;-78
2021/10/02 13:07:33;;;;;;;3.50;1.90;;;24.60;64.30;;;;;;5038748;28;20048;-74
2021/10/02 13:10:11;;;;;;;5.40;2.17;;;24.70;62.10;;;;;;5037760;28;20080;-75
2021/10/02 13:12:43;;;;;;;4.57;2.13;;;24.90;61.40;;;;;;5037388;28;20566;-74
2021/10/02 13:15:23;;;;;;;4.50;2.40;;;25.00;60.90;;;;;;5043974;28;20601;-75
2021/10/02 13:18:07;;;;;;;6.05;2.33;;;25.10;60.00;;;;;;5038022;28;20056;-75
2021/10/02 13:20:37;;;;;;;4.93;2.30;;;;;;;;;;5038938;28;20044;-76
2021/10/02 13:23:11;;;;;;;4.55;2.22;;;25.80;75.10;;;;;;5034963;28;20084;-75
2021/10/02 13:25:41;;;;;;;4.82;2.33;;;25.60;58.60;;;;;;5036814;28;20515;-76
2021/10/02 13:28:22;;;;;;;4.93;2.33;;;25.70;57.10;;;;;;5037166;28;20042;-74
2021/10/02 13:30:50;;;;;;;4.80;2.40;;;25.80;56.80;;;;;;5037478;28;20124;-74
2021/10/02 13:33:18;;;;;;;4.47;2.40;;;25.90;57.80;;;;;;5037686;28;20509;-74
2021/10/02 13:35:50;;;;;;;5.50;2.40;;;26.20;58.10;;;;;;5037460;28;20139;-74
2021/10/02 13:38:30;;;;;;;4.65;2.20;;;26.40;57.10;;;;;;5043879;28;20540;-75
2021/10/02 13:41:00;;;;;;;4.97;2.80;;;26.60;56.50;;;;;;5037416;28;20056;-74
2021/10/02 13:43:29;;;;;;;4.88;3.05;;;26.80;57.30;;;;;;5036328;28;20049;-79
2021/10/02 13:45:57;;;;;;;4.57;2.72;;;27.20;56.70;;;;;;5040065;28;20138;-76
2021/10/02 13:48:27;;;;;;;6.63;2.80;;;27.40;54.70;;;;;;5041912;28;20080;-76
2021/10/02 13:50:57;;;;;;;6.65;2.92;;;27.60;55.10;;;;;;5048949;28;20084;-77
2021/10/02 13:53:24;;;;;;;4.63;3.20;;;27.70;55.40;;;;;;5029379;28;20128;-78
2021/10/02 13:55:53;;;;;;;4.72;3.10;;;28.00;54.20;;;;;;5029649;28;20054;-76
2021/10/02 13:58:20;;;;;;;4.38;2.78;;;28.50;53.80;;;;;;5029331;28;20088;-79